sensor_id;sensor_type;location;lat;lon;timestamp;P1;durP1;ratioP1;P2;durP2;ratioP2
1436;SDS011;712;51.026;13.792;2022-07-23T00:00:57;5.57;;;5.10;;
1436;SDS011;712;51.026;13.792;2022-07-23T00:03:23;5.55;;;5.15;;
1436;SDS011;712;51.026;13.792;2022-07-23T00:05:48;5.30;;;4.80;;
1436;SDS011;712;51.026;13.792;2022-07-23T00:08:13;4.97;;;4.57;;
1436;SDS011;712;51.026;13.792;2022-07-23T00:10:38;4.90;;;4.50;;
1436;SDS011;712;51.026;13.792;2022-07-23T00:13:04;5.20;;;4.90;;
1436;SDS011;712;51.026;13.792;2022-07-23T00:15:29;5.37;;;4.97;;
1436;SDS011;712;51.026;13.792;2022-07-23T00:17:54;5.53;;;5.13;;
1436;SDS011;712;51.026;13.792;2022-07-23T00:20:19;5.80;;;5.40;;
1436;SDS011;712;51.026;13.792;2022-07-23T00:22:48;5.70;;;5.10;;
1436;SDS011;712;51.026;13.792;2022-07-23T00:25:13;5.32;;;4.93;;
1436;SDS011;712;51.026;13.792;2022-07-23T00:27:38;5.50;;;5.00;;
1436;SDS011;712;51.026;13.792;2022-07-23T00:30:04;6.00;;;5.60;;
1436;SDS011;712;51.026;13.792;2022-07-23T00:32:29;5.50;;;5.10;;
1436;SDS011;712;51.026;13.792;2022-07-23T00:34:54;6.30;;;5.80;;
1436;SDS011;712;51.026;13.792;2022-07-23T00:37:19;5.80;;;5.40;;
1436;SDS011;712;51.026;13.792;2022-07-23T00:39:44;5.32;;;4.93;;
1436;SDS011;712;51.026;13.792;2022-07-23T00:42:09;5.00;;;4.50;;
1436;SDS011;712;51.026;13.792;2022-07-23T00:44:35;5.00;;;4.70;;
1436;SDS011;712;51.026;13.792;2022-07-23T00:47:00;5.10;;;4.70;;
1436;SDS011;712;51.026;13.792;2022-07-23T00:49:26;5.43;;;5.03;;
1436;SDS011;712;51.026;13.792;2022-07-23T00:51:52;5.70;;;5.07;;
1436;SDS011;712;51.026;13.792;2022-07-23T00:54:18;5.43;;;4.32;;
1436;SDS011;712;51.026;13.792;2022-07-23T00:56:44;5.70;;;5.20;;
1436;SDS011;712;51.026;13.792;2022-07-23T00:59:10;5.93;;;5.53;;
1436;SDS011;712;51.026;13.792;2022-07-23T01:01:35;6.37;;;5.87;;
1436;SDS011;712;51.026;13.792;2022-07-23T01:04:01;5.55;;;5.15;;
1436;SDS011;712;51.026;13.792;2022-07-23T01:06:26;5.03;;;4.63;;
1436;SDS011;712;51.026;13.792;2022-07-23T01:08:52;5.95;;;5.50;;
1436;SDS011;712;51.026;13.792;2022-07-23T01:11:18;6.30;;;5.80;;
1436;SDS011;712;51.026;13.792;2022-07-23T01:13:44;6.00;;;5.50;;
1436;SDS011;712;51.026;13.792;2022-07-23T01:16:09;5.50;;;5.00;;
1436;SDS011;712;51.026;13.792;2022-07-23T01:18:34;5.68;;;5.28;;
1436;SDS011;712;51.026;13.792;2022-07-23T01:20:59;5.35;;;5.05;;
1436;SDS011;712;51.026;13.792;2022-07-23T01:23:24;5.70;;;5.35;;
1436;SDS011;712;51.026;13.792;2022-07-23T01:25:53;5.80;;;5.40;;
1436;SDS011;712;51.026;13.792;2022-07-23T01:28:18;5.70;;;5.30;;
1436;SDS011;712;51.026;13.792;2022-07-23T01:30:44;5.05;;;4.75;;
1436;SDS011;712;51.026;13.792;2022-07-23T01:33:09;6.17;;;5.77;;
1436;SDS011;712;51.026;13.792;2022-07-23T01:35:34;5.80;;;5.40;;
1436;SDS011;712;51.026;13.792;2022-07-23T01:37:59;5.45;;;5.05;;
1436;SDS011;712;51.026;13.792;2022-07-23T01:40:24;5.80;;;5.40;;
1436;SDS011;712;51.026;13.792;2022-07-23T01:42:49;5.70;;;5.30;;
1436;SDS011;712;51.026;13.792;2022-07-23T01:45:15;5.80;;;5.40;;
1436;SDS011;712;51.026;13.792;2022-07-23T01:47:40;5.80;;;5.40;;
1436;SDS011;712;51.026;13.792;2022-07-23T01:50:05;5.70;;;5.30;;
1436;SDS011;712;51.026;13.792;2022-07-23T01:52:30;5.75;;;5.32;;
1436;SDS011;712;51.026;13.792;2022-07-23T01:54:56;5.77;;;5.27;;
1436;SDS011;712;51.026;13.792;2022-07-23T01:57:21;5.95;;;5.45;;
1436;SDS011;712;51.026;13.792;2022-07-23T01:59:46;5.30;;;4.90;;
1436;SDS011;712;51.026;13.792;2022-07-23T02:02:11;6.10;;;5.60;;
1436;SDS011;712;51.026;13.792;2022-07-23T02:04:36;6.10;;;5.70;;
1436;SDS011;712;51.026;13.792;2022-07-23T02:07:01;6.20;;;5.70;;
1436;SDS011;712;51.026;13.792;2022-07-23T02:09:27;5.97;;;5.37;;
1436;SDS011;712;51.026;13.792;2022-07-23T02:11:52;5.85;;;5.45;;
1436;SDS011;712;51.026;13.792;2022-07-23T02:14:17;6.00;;;5.50;;
1436;SDS011;712;51.026;13.792;2022-07-23T02:16:42;5.55;;;5.15;;
1436;SDS011;712;51.026;13.792;2022-07-23T02:19:07;6.20;;;5.80;;
1436;SDS011;712;51.026;13.792;2022-07-23T02:21:32;6.17;;;5.77;;
1436;SDS011;712;51.026;13.792;2022-07-23T02:23:58;6.22;;;5.72;;
1436;SDS011;712;51.026;13.792;2022-07-23T02:26:23;5.07;;;4.77;;
1436;SDS011;712;51.026;13.792;2022-07-23T02:28:48;6.70;;;6.10;;
1436;SDS011;712;51.026;13.792;2022-07-23T02:31:13;5.80;;;5.40;;
1436;SDS011;712;51.026;13.792;2022-07-23T02:33:38;6.50;;;5.95;;
1436;SDS011;712;51.026;13.792;2022-07-23T02:36:03;5.82;;;5.50;;
1436;SDS011;712;51.026;13.792;2022-07-23T02:38:29;5.63;;;5.22;;
1436;SDS011;712;51.026;13.792;2022-07-23T02:40:55;5.82;;;5.43;;
1436;SDS011;712;51.026;13.792;2022-07-23T02:43:20;6.10;;;5.70;;
1436;SDS011;712;51.026;13.792;2022-07-23T02:45:45;6.10;;;5.60;;
1436;SDS011;712;51.026;13.792;2022-07-23T02:48:10;6.38;;;5.88;;
1436;SDS011;712;51.026;13.792;2022-07-23T02:50:37;7.70;;;7.00;;
1436;SDS011;712;51.026;13.792;2022-07-23T02:53:02;7.50;;;6.80;;
1436;SDS011;712;51.026;13.792;2022-07-23T02:55:27;7.32;;;6.72;;
1436;SDS011;712;51.026;13.792;2022-07-23T02:57:53;7.27;;;6.77;;
1436;SDS011;712;51.026;13.792;2022-07-23T03:00:18;8.02;;;7.32;;
1436;SDS011;712;51.026;13.792;2022-07-23T03:02:43;8.13;;;7.53;;
1436;SDS011;712;51.026;13.792;2022-07-23T03:05:08;8.50;;;7.90;;
1436;SDS011;712;51.026;13.792;2022-07-23T03:07:34;7.80;;;7.20;;
1436;SDS011;712;51.026;13.792;2022-07-23T03:09:59;8.45;;;7.85;;
1436;SDS011;712;51.026;13.792;2022-07-23T03:12:24;8.40;;;7.70;;
1436;SDS011;712;51.026;13.792;2022-07-23T03:14:49;7.90;;;7.40;;
1436;SDS011;712;51.026;13.792;2022-07-23T03:17:14;7.90;;;7.30;;
1436;SDS011;712;51.026;13.792;2022-07-23T03:19:39;8.27;;;7.67;;
1436;SDS011;712;51.026;13.792;2022-07-23T03:22:05;8.50;;;7.70;;
1436;SDS011;712;51.026;13.792;2022-07-23T03:24:30;8.60;;;7.90;;
1436;SDS011;712;51.026;13.792;2022-07-23T03:27:14;8.48;;;7.78;;
1436;SDS011;712;51.026;13.792;2022-07-23T03:29:39;8.27;;;7.67;;
1436;SDS011;712;51.026;13.792;2022-07-23T03:32:04;7.70;;;7.10;;
1436;SDS011;712;51.026;13.792;2022-07-23T03:34:29;7.60;;;7.03;;
1436;SDS011;712;51.026;13.792;2022-07-23T03:36:54;7.65;;;7.15;;
1436;SDS011;712;51.026;13.792;2022-07-23T03:39:19;7.50;;;6.90;;
1436;SDS011;712;51.026;13.792;2022-07-23T03:41:45;8.97;;;8.20;;
1436;SDS011;712;51.026;13.792;2022-07-23T03:44:10;7.33;;;6.73;;
1436;SDS011;712;51.026;13.792;2022-07-23T03:46:35;8.23;;;7.60;;
1436;SDS011;712;51.026;13.792;2022-07-23T03:49:00;8.10;;;7.60;;
1436;SDS011;712;51.026;13.792;2022-07-23T03:51:25;7.63;;;7.03;;
1436;SDS011;712;51.026;13.792;2022-07-23T03:53:50;7.30;;;6.70;;
1436;SDS011;712;51.026;13.792;2022-07-23T03:56:15;7.68;;;7.15;;
1436;SDS011;712;51.026;13.792;2022-07-23T03:58:41;7.72;;;7.13;;
1436;SDS011;712;51.026;13.792;2022-07-23T04:01:06;7.65;;;6.95;;
1436;SDS011;712;51.026;13.792;2022-07-23T04:03:31;8.07;;;7.47;;
1436;SDS011;712;51.026;13.792;2022-07-23T04:05:56;7.60;;;7.10;;
1436;SDS011;712;51.026;13.792;2022-07-23T04:08:21;7.47;;;6.87;;
1436;SDS011;712;51.026;13.792;2022-07-23T04:10:47;7.90;;;7.20;;
1436;SDS011;712;51.026;13.792;2022-07-23T04:13:12;7.20;;;6.60;;
1436;SDS011;712;51.026;13.792;2022-07-23T04:15:37;7.30;;;6.70;;
1436;SDS011;712;51.026;13.792;2022-07-23T04:18:02;7.20;;;6.70;;
1436;SDS011;712;51.026;13.792;2022-07-23T04:20:27;7.27;;;6.70;;
1436;SDS011;712;51.026;13.792;2022-07-23T04:22:53;7.57;;;7.05;;
1436;SDS011;712;51.026;13.792;2022-07-23T04:25:18;6.47;;;6.00;;
1436;SDS011;712;51.026;13.792;2022-07-23T04:27:43;7.22;;;6.72;;
1436;SDS011;712;51.026;13.792;2022-07-23T04:30:08;8.60;;;6.70;;
1436;SDS011;712;51.026;13.792;2022-07-23T04:32:34;7.00;;;6.50;;
1436;SDS011;712;51.026;13.792;2022-07-23T04:34:59;7.40;;;6.90;;
1436;SDS011;712;51.026;13.792;2022-07-23T04:37:24;7.35;;;6.85;;
1436;SDS011;712;51.026;13.792;2022-07-23T04:39:49;7.00;;;6.40;;
1436;SDS011;712;51.026;13.792;2022-07-23T04:42:14;6.93;;;6.43;;
1436;SDS011;712;51.026;13.792;2022-07-23T04:44:39;6.70;;;6.20;;
1436;SDS011;712;51.026;13.792;2022-07-23T04:47:04;6.82;;;6.32;;
1436;SDS011;712;51.026;13.792;2022-07-23T04:49:29;7.13;;;6.63;;
1436;SDS011;712;51.026;13.792;2022-07-23T04:51:55;7.40;;;6.80;;
1436;SDS011;712;51.026;13.792;2022-07-23T04:54:20;6.90;;;6.40;;
1436;SDS011;712;51.026;13.792;2022-07-23T04:56:45;6.90;;;6.30;;
1436;SDS011;712;51.026;13.792;2022-07-23T04:59:10;6.50;;;6.00;;
1436;SDS011;712;51.026;13.792;2022-07-23T05:01:35;6.78;;;6.18;;
1436;SDS011;712;51.026;13.792;2022-07-23T05:04:00;6.18;;;5.68;;
1436;SDS011;712;51.026;13.792;2022-07-23T05:06:25;6.10;;;5.70;;
1436;SDS011;712;51.026;13.792;2022-07-23T05:08:51;6.72;;;6.22;;
1436;SDS011;712;51.026;13.792;2022-07-23T05:11:16;6.70;;;6.20;;
1436;SDS011;712;51.026;13.792;2022-07-23T05:13:41;7.27;;;6.70;;
1436;SDS011;712;51.026;13.792;2022-07-23T05:16:06;6.40;;;6.00;;
1436;SDS011;712;51.026;13.792;2022-07-23T05:18:32;7.22;;;6.63;;
1436;SDS011;712;51.026;13.792;2022-07-23T05:20:57;6.20;;;5.80;;
1436;SDS011;712;51.026;13.792;2022-07-23T05:23:22;6.00;;;5.40;;
1436;SDS011;712;51.026;13.792;2022-07-23T05:25:47;7.20;;;6.70;;
1436;SDS011;712;51.026;13.792;2022-07-23T05:28:12;6.80;;;6.20;;
1436;SDS011;712;51.026;13.792;2022-07-23T05:30:37;6.72;;;6.18;;
1436;SDS011;712;51.026;13.792;2022-07-23T05:33:02;6.57;;;6.07;;
1436;SDS011;712;51.026;13.792;2022-07-23T05:35:28;6.60;;;6.10;;
1436;SDS011;712;51.026;13.792;2022-07-23T05:37:53;6.70;;;6.20;;
1436;SDS011;712;51.026;13.792;2022-07-23T05:40:18;6.20;;;5.70;;
1436;SDS011;712;51.026;13.792;2022-07-23T05:42:43;6.60;;;5.85;;
1436;SDS011;712;51.026;13.792;2022-07-23T05:45:08;6.00;;;5.60;;
1436;SDS011;712;51.026;13.792;2022-07-23T05:47:43;6.20;;;5.80;;
1436;SDS011;712;51.026;13.792;2022-07-23T05:50:09;6.63;;;6.13;;
1436;SDS011;712;51.026;13.792;2022-07-23T05:52:34;6.57;;;6.00;;
1436;SDS011;712;51.026;13.792;2022-07-23T05:54:59;5.90;;;5.40;;
1436;SDS011;712;51.026;13.792;2022-07-23T05:57:24;6.60;;;6.10;;
1436;SDS011;712;51.026;13.792;2022-07-23T05:59:55;6.40;;;5.90;;
1436;SDS011;712;51.026;13.792;2022-07-23T06:02:21;5.80;;;5.40;;
1436;SDS011;712;51.026;13.792;2022-07-23T06:04:46;5.50;;;5.00;;
1436;SDS011;712;51.026;13.792;2022-07-23T06:07:11;6.40;;;5.90;;
1436;SDS011;712;51.026;13.792;2022-07-23T06:09:36;5.30;;;4.90;;
1436;SDS011;712;51.026;13.792;2022-07-23T06:12:01;6.37;;;5.87;;
1436;SDS011;712;51.026;13.792;2022-07-23T06:14:26;6.17;;;5.67;;
1436;SDS011;712;51.026;13.792;2022-07-23T06:16:51;5.80;;;5.40;;
1436;SDS011;712;51.026;13.792;2022-07-23T06:19:17;6.80;;;6.20;;
1436;SDS011;712;51.026;13.792;2022-07-23T06:21:42;6.00;;;5.50;;
1436;SDS011;712;51.026;13.792;2022-07-23T06:24:07;6.40;;;5.90;;
1436;SDS011;712;51.026;13.792;2022-07-23T06:26:32;6.30;;;5.80;;
1436;SDS011;712;51.026;13.792;2022-07-23T06:28:57;6.40;;;5.60;;
1436;SDS011;712;51.026;13.792;2022-07-23T06:31:22;6.90;;;6.35;;
1436;SDS011;712;51.026;13.792;2022-07-23T06:33:48;6.70;;;6.10;;
1436;SDS011;712;51.026;13.792;2022-07-23T06:36:13;6.70;;;6.20;;
1436;SDS011;712;51.026;13.792;2022-07-23T06:38:38;8.20;;;7.40;;
1436;SDS011;712;51.026;13.792;2022-07-23T06:41:03;7.32;;;6.72;;
1436;SDS011;712;51.026;13.792;2022-07-23T06:43:29;7.07;;;6.47;;
1436;SDS011;712;51.026;13.792;2022-07-23T06:45:55;7.50;;;6.90;;
1436;SDS011;712;51.026;13.792;2022-07-23T06:48:20;7.07;;;6.47;;
1436;SDS011;712;51.026;13.792;2022-07-23T06:50:45;7.20;;;6.50;;
1436;SDS011;712;51.026;13.792;2022-07-23T06:53:10;7.47;;;6.67;;
1436;SDS011;712;51.026;13.792;2022-07-23T06:55:35;6.72;;;6.10;;
1436;SDS011;712;51.026;13.792;2022-07-23T06:58:03;7.40;;;6.80;;
1436;SDS011;712;51.026;13.792;2022-07-23T07:00:28;6.38;;;5.78;;
1436;SDS011;712;51.026;13.792;2022-07-23T07:02:54;7.47;;;6.77;;
1436;SDS011;712;51.026;13.792;2022-07-23T07:05:20;6.85;;;6.35;;
1436;SDS011;712;51.026;13.792;2022-07-23T07:07:45;6.87;;;6.27;;
1436;SDS011;712;51.026;13.792;2022-07-23T07:10:10;7.00;;;6.50;;
1436;SDS011;712;51.026;13.792;2022-07-23T07:12:35;7.20;;;6.60;;
1436;SDS011;712;51.026;13.792;2022-07-23T07:15:00;7.15;;;6.60;;
1436;SDS011;712;51.026;13.792;2022-07-23T07:17:25;6.70;;;6.20;;
1436;SDS011;712;51.026;13.792;2022-07-23T07:19:50;6.70;;;6.20;;
1436;SDS011;712;51.026;13.792;2022-07-23T07:22:16;7.28;;;6.78;;
1436;SDS011;712;51.026;13.792;2022-07-23T07:24:41;7.35;;;6.75;;
1436;SDS011;712;51.026;13.792;2022-07-23T07:27:06;8.70;;;8.00;;
1436;SDS011;712;51.026;13.792;2022-07-23T07:29:31;7.20;;;6.70;;
1436;SDS011;712;51.026;13.792;2022-07-23T07:31:56;7.23;;;6.60;;
1436;SDS011;712;51.026;13.792;2022-07-23T07:34:21;6.85;;;6.25;;
1436;SDS011;712;51.026;13.792;2022-07-23T07:36:46;6.67;;;6.13;;
1436;SDS011;712;51.026;13.792;2022-07-23T07:39:12;6.17;;;5.67;;
1436;SDS011;712;51.026;13.792;2022-07-23T07:41:37;6.30;;;5.90;;
1436;SDS011;712;51.026;13.792;2022-07-23T07:44:02;7.87;;;7.27;;
1436;SDS011;712;51.026;13.792;2022-07-23T07:46:27;6.80;;;6.20;;
1436;SDS011;712;51.026;13.792;2022-07-23T07:48:53;6.70;;;6.20;;
1436;SDS011;712;51.026;13.792;2022-07-23T07:51:18;7.50;;;6.90;;
1436;SDS011;712;51.026;13.792;2022-07-23T07:53:43;8.30;;;7.60;;
1436;SDS011;712;51.026;13.792;2022-07-23T07:56:08;7.30;;;6.60;;
1436;SDS011;712;51.026;13.792;2022-07-23T07:58:33;7.40;;;6.80;;
1436;SDS011;712;51.026;13.792;2022-07-23T08:00:58;7.20;;;6.13;;
1436;SDS011;712;51.026;13.792;2022-07-23T08:03:25;6.97;;;6.38;;
1436;SDS011;712;51.026;13.792;2022-07-23T08:05:50;7.30;;;6.60;;
1436;SDS011;712;51.026;13.792;2022-07-23T08:08:15;8.40;;;7.60;;
1436;SDS011;712;51.026;13.792;2022-07-23T08:10:40;6.78;;;6.28;;
1436;SDS011;712;51.026;13.792;2022-07-23T08:13:06;7.13;;;6.60;;
1436;SDS011;712;51.026;13.792;2022-07-23T08:15:31;6.90;;;6.30;;
1436;SDS011;712;51.026;13.792;2022-07-23T08:17:57;6.40;;;5.90;;
1436;SDS011;712;51.026;13.792;2022-07-23T08:20:23;7.70;;;5.80;;
1436;SDS011;712;51.026;13.792;2022-07-23T08:22:49;6.00;;;5.50;;
1436;SDS011;712;51.026;13.792;2022-07-23T08:25:15;6.20;;;5.70;;
1436;SDS011;712;51.026;13.792;2022-07-23T08:27:40;6.20;;;5.70;;
1436;SDS011;712;51.026;13.792;2022-07-23T08:30:06;6.63;;;6.10;;
1436;SDS011;712;51.026;13.792;2022-07-23T08:32:31;5.77;;;5.37;;
1436;SDS011;712;51.026;13.792;2022-07-23T08:34:56;6.53;;;6.07;;
1436;SDS011;712;51.026;13.792;2022-07-23T08:37:21;6.03;;;5.63;;
1436;SDS011;712;51.026;13.792;2022-07-23T08:39:46;6.70;;;6.20;;
1436;SDS011;712;51.026;13.792;2022-07-23T08:42:13;6.75;;;6.15;;
1436;SDS011;712;51.026;13.792;2022-07-23T08:44:38;6.00;;;5.60;;
1436;SDS011;712;51.026;13.792;2022-07-23T08:47:06;7.00;;;6.50;;
1436;SDS011;712;51.026;13.792;2022-07-23T08:49:32;7.10;;;6.60;;
1436;SDS011;712;51.026;13.792;2022-07-23T08:51:57;5.63;;;5.23;;
1436;SDS011;712;51.026;13.792;2022-07-23T08:54:22;5.60;;;5.20;;
1436;SDS011;712;51.026;13.792;2022-07-23T08:56:48;7.00;;;6.50;;
1436;SDS011;712;51.026;13.792;2022-07-23T08:59:13;5.53;;;5.13;;
1436;SDS011;712;51.026;13.792;2022-07-23T09:01:39;7.00;;;6.50;;
1436;SDS011;712;51.026;13.792;2022-07-23T09:04:05;6.15;;;5.65;;
1436;SDS011;712;51.026;13.792;2022-07-23T09:06:31;6.85;;;6.45;;
1436;SDS011;712;51.026;13.792;2022-07-23T09:08:56;7.30;;;6.60;;
1436;SDS011;712;51.026;13.792;2022-07-23T09:11:21;7.07;;;6.50;;
1436;SDS011;712;51.026;13.792;2022-07-23T09:16:15;5.80;;;5.30;;
1436;SDS011;712;51.026;13.792;2022-07-23T09:18:42;6.20;;;5.70;;
1436;SDS011;712;51.026;13.792;2022-07-23T09:23:38;6.20;;;5.80;;
1436;SDS011;712;51.026;13.792;2022-07-23T09:26:07;6.50;;;6.10;;
1436;SDS011;712;51.026;13.792;2022-07-23T09:28:51;6.15;;;5.75;;
1436;SDS011;712;51.026;13.792;2022-07-23T09:31:18;6.33;;;5.93;;
1436;SDS011;712;51.026;13.792;2022-07-23T09:33:43;6.53;;;6.03;;
1436;SDS011;712;51.026;13.792;2022-07-23T09:36:08;6.60;;;6.10;;
1436;SDS011;712;51.026;13.792;2022-07-23T09:38:34;6.27;;;5.87;;
1436;SDS011;712;51.026;13.792;2022-07-23T09:41:06;6.10;;;5.70;;
1436;SDS011;712;51.026;13.792;2022-07-23T09:43:31;5.78;;;5.38;;
1436;SDS011;712;51.026;13.792;2022-07-23T09:48:40;5.90;;;5.40;;
1436;SDS011;712;51.026;13.792;2022-07-23T09:51:06;6.70;;;6.25;;
1436;SDS011;712;51.026;13.792;2022-07-23T09:53:31;7.18;;;6.57;;
1436;SDS011;712;51.026;13.792;2022-07-23T09:55:56;6.20;;;5.80;;
1436;SDS011;712;51.026;13.792;2022-07-23T09:58:23;7.30;;;6.70;;
1436;SDS011;712;51.026;13.792;2022-07-23T10:00:51;5.97;;;5.57;;
1436;SDS011;712;51.026;13.792;2022-07-23T10:03:17;6.07;;;5.68;;
1436;SDS011;712;51.026;13.792;2022-07-23T10:05:44;6.30;;;5.80;;
1436;SDS011;712;51.026;13.792;2022-07-23T10:08:11;6.73;;;6.23;;
1436;SDS011;712;51.026;13.792;2022-07-23T10:10:36;6.75;;;6.35;;
1436;SDS011;712;51.026;13.792;2022-07-23T10:13:02;6.10;;;5.70;;
1436;SDS011;712;51.026;13.792;2022-07-23T10:15:46;6.80;;;6.30;;
1436;SDS011;712;51.026;13.792;2022-07-23T10:18:11;7.30;;;6.70;;
1436;SDS011;712;51.026;13.792;2022-07-23T10:20:39;6.90;;;6.40;;
1436;SDS011;712;51.026;13.792;2022-07-23T10:23:10;6.80;;;6.20;;
1436;SDS011;712;51.026;13.792;2022-07-23T10:28:15;7.05;;;6.55;;
1436;SDS011;712;51.026;13.792;2022-07-23T10:33:15;7.30;;;6.80;;
1436;SDS011;712;51.026;13.792;2022-07-23T10:35:44;7.85;;;7.35;;
1436;SDS011;712;51.026;13.792;2022-07-23T10:38:25;7.70;;;7.20;;
1436;SDS011;712;51.026;13.792;2022-07-23T10:40:58;7.60;;;7.10;;
1436;SDS011;712;51.026;13.792;2022-07-23T10:43:23;8.27;;;7.68;;
1436;SDS011;712;51.026;13.792;2022-07-23T10:45:48;7.70;;;7.20;;
1436;SDS011;712;51.026;13.792;2022-07-23T10:48:15;8.00;;;7.30;;
1436;SDS011;712;51.026;13.792;2022-07-23T10:50:41;7.47;;;6.80;;
1436;SDS011;712;51.026;13.792;2022-07-23T10:57:56;7.38;;;6.78;;
1436;SDS011;712;51.026;13.792;2022-07-23T11:00:25;6.90;;;6.40;;
1436;SDS011;712;51.026;13.792;2022-07-23T11:02:51;8.13;;;7.43;;
1436;SDS011;712;51.026;13.792;2022-07-23T11:05:20;8.15;;;7.45;;
1436;SDS011;712;51.026;13.792;2022-07-23T11:13:16;7.00;;;6.50;;
1436;SDS011;712;51.026;13.792;2022-07-23T11:31:56;6.80;;;6.30;;
1436;SDS011;712;51.026;13.792;2022-07-23T11:37:27;7.10;;;6.60;;
1436;SDS011;712;51.026;13.792;2022-07-23T11:39:52;6.75;;;6.25;;
1436;SDS011;712;51.026;13.792;2022-07-23T11:42:18;7.20;;;6.70;;
1436;SDS011;712;51.026;13.792;2022-07-23T11:44:46;7.00;;;6.50;;
1436;SDS011;712;51.026;13.792;2022-07-23T11:47:11;6.80;;;6.30;;
1436;SDS011;712;51.026;13.792;2022-07-23T11:49:51;7.30;;;6.70;;
1436;SDS011;712;51.026;13.792;2022-07-23T11:52:16;6.53;;;6.13;;
1436;SDS011;712;51.026;13.792;2022-07-23T11:54:49;6.90;;;6.30;;
1436;SDS011;712;51.026;13.792;2022-07-23T11:57:15;6.57;;;6.07;;
1436;SDS011;712;51.026;13.792;2022-07-23T11:59:40;6.47;;;6.07;;
1436;SDS011;712;51.026;13.792;2022-07-23T12:02:06;7.40;;;6.72;;
1436;SDS011;712;51.026;13.792;2022-07-23T12:04:45;6.40;;;6.00;;
1436;SDS011;712;51.026;13.792;2022-07-23T12:07:24;6.60;;;6.10;;
1436;SDS011;712;51.026;13.792;2022-07-23T12:09:50;7.30;;;6.70;;
1436;SDS011;712;51.026;13.792;2022-07-23T12:12:15;7.50;;;7.00;;
1436;SDS011;712;51.026;13.792;2022-07-23T12:17:14;6.82;;;6.32;;
1436;SDS011;712;51.026;13.792;2022-07-23T12:19:40;7.10;;;6.60;;
1436;SDS011;712;51.026;13.792;2022-07-23T12:22:05;7.80;;;7.10;;
1436;SDS011;712;51.026;13.792;2022-07-23T12:24:30;7.67;;;7.17;;
1436;SDS011;712;51.026;13.792;2022-07-23T12:27:11;7.63;;;7.03;;
1436;SDS011;712;51.026;13.792;2022-07-23T12:29:36;8.30;;;7.65;;
1436;SDS011;712;51.026;13.792;2022-07-23T12:32:02;9.20;;;8.50;;
1436;SDS011;712;51.026;13.792;2022-07-23T12:34:27;8.00;;;7.50;;
1436;SDS011;712;51.026;13.792;2022-07-23T12:36:52;7.80;;;7.20;;
1436;SDS011;712;51.026;13.792;2022-07-23T12:39:30;8.30;;;7.50;;
1436;SDS011;712;51.026;13.792;2022-07-23T12:41:56;7.53;;;7.00;;
1436;SDS011;712;51.026;13.792;2022-07-23T12:44:21;8.03;;;7.43;;
1436;SDS011;712;51.026;13.792;2022-07-23T12:46:49;8.17;;;7.47;;
1436;SDS011;712;51.026;13.792;2022-07-23T12:49:24;7.70;;;7.10;;
1436;SDS011;712;51.026;13.792;2022-07-23T12:51:50;7.97;;;7.38;;
1436;SDS011;712;51.026;13.792;2022-07-23T12:54:15;7.78;;;7.18;;
1436;SDS011;712;51.026;13.792;2022-07-23T12:56:40;8.10;;;7.60;;
1436;SDS011;712;51.026;13.792;2022-07-23T12:59:09;7.72;;;7.13;;
1436;SDS011;712;51.026;13.792;2022-07-23T13:01:39;7.43;;;6.90;;
1436;SDS011;712;51.026;13.792;2022-07-23T13:04:05;8.07;;;7.47;;
1436;SDS011;712;51.026;13.792;2022-07-23T13:06:31;8.57;;;7.78;;
1436;SDS011;712;51.026;13.792;2022-07-23T13:08:57;7.70;;;7.20;;
1436;SDS011;712;51.026;13.792;2022-07-23T13:11:22;7.43;;;6.93;;
1436;SDS011;712;51.026;13.792;2022-07-23T13:13:47;7.80;;;7.20;;
1436;SDS011;712;51.026;13.792;2022-07-23T13:16:12;8.70;;;8.00;;
1436;SDS011;712;51.026;13.792;2022-07-23T13:18:37;7.43;;;6.93;;
1436;SDS011;712;51.026;13.792;2022-07-23T13:21:03;7.60;;;6.90;;
1436;SDS011;712;51.026;13.792;2022-07-23T13:23:28;7.57;;;6.97;;
1436;SDS011;712;51.026;13.792;2022-07-23T13:25:53;7.90;;;7.27;;
1436;SDS011;712;51.026;13.792;2022-07-23T13:28:18;8.15;;;7.55;;
1436;SDS011;712;51.026;13.792;2022-07-23T13:30:44;7.60;;;7.00;;
1436;SDS011;712;51.026;13.792;2022-07-23T13:33:10;7.30;;;6.80;;
1436;SDS011;712;51.026;13.792;2022-07-23T13:35:35;8.27;;;7.67;;
1436;SDS011;712;51.026;13.792;2022-07-23T13:38:01;8.15;;;7.55;;
1436;SDS011;712;51.026;13.792;2022-07-23T13:40:26;8.00;;;7.50;;
1436;SDS011;712;51.026;13.792;2022-07-23T13:42:51;7.60;;;7.10;;
1436;SDS011;712;51.026;13.792;2022-07-23T13:45:16;7.10;;;6.60;;
1436;SDS011;712;51.026;13.792;2022-07-23T13:47:42;8.10;;;7.50;;
1436;SDS011;712;51.026;13.792;2022-07-23T13:50:07;8.38;;;7.78;;
1436;SDS011;712;51.026;13.792;2022-07-23T13:52:32;8.40;;;7.80;;
1436;SDS011;712;51.026;13.792;2022-07-23T13:55:04;7.47;;;6.97;;
1436;SDS011;712;51.026;13.792;2022-07-23T13:57:30;8.10;;;7.50;;
1436;SDS011;712;51.026;13.792;2022-07-23T13:59:55;7.93;;;7.32;;
1436;SDS011;712;51.026;13.792;2022-07-23T14:02:21;8.40;;;7.80;;
1436;SDS011;712;51.026;13.792;2022-07-23T14:04:46;8.77;;;7.87;;
1436;SDS011;712;51.026;13.792;2022-07-23T14:07:11;8.70;;;8.00;;
1436;SDS011;712;51.026;13.792;2022-07-23T14:09:36;7.70;;;7.03;;
1436;SDS011;712;51.026;13.792;2022-07-23T14:12:01;8.00;;;7.50;;
1436;SDS011;712;51.026;13.792;2022-07-23T14:14:27;8.43;;;7.83;;
1436;SDS011;712;51.026;13.792;2022-07-23T14:16:52;7.90;;;7.30;;
1436;SDS011;712;51.026;13.792;2022-07-23T14:19:17;8.00;;;7.40;;
1436;SDS011;712;51.026;13.792;2022-07-23T14:21:42;7.80;;;7.20;;
1436;SDS011;712;51.026;13.792;2022-07-23T14:24:08;7.97;;;7.38;;
1436;SDS011;712;51.026;13.792;2022-07-23T14:26:33;8.40;;;7.80;;
1436;SDS011;712;51.026;13.792;2022-07-23T14:28:58;9.80;;;9.10;;
1436;SDS011;712;51.026;13.792;2022-07-23T14:31:23;8.57;;;7.97;;
1436;SDS011;712;51.026;13.792;2022-07-23T14:33:48;8.43;;;7.83;;
1436;SDS011;712;51.026;13.792;2022-07-23T14:36:15;8.53;;;7.93;;
1436;SDS011;712;51.026;13.792;2022-07-23T14:38:40;7.53;;;7.03;;
1436;SDS011;712;51.026;13.792;2022-07-23T14:41:05;8.50;;;7.80;;
1436;SDS011;712;51.026;13.792;2022-07-23T14:43:32;8.50;;;7.80;;
1436;SDS011;712;51.026;13.792;2022-07-23T14:45:58;7.57;;;7.07;;
1436;SDS011;712;51.026;13.792;2022-07-23T14:48:23;7.57;;;7.07;;
1436;SDS011;712;51.026;13.792;2022-07-23T14:50:48;7.05;;;6.55;;
1436;SDS011;712;51.026;13.792;2022-07-23T14:53:13;7.65;;;7.15;;
1436;SDS011;712;51.026;13.792;2022-07-23T14:55:38;7.13;;;6.63;;
1436;SDS011;712;51.026;13.792;2022-07-23T14:58:03;8.00;;;7.50;;
1436;SDS011;712;51.026;13.792;2022-07-23T15:00:28;8.18;;;7.57;;
1436;SDS011;712;51.026;13.792;2022-07-23T15:02:54;8.18;;;7.55;;
1436;SDS011;712;51.026;13.792;2022-07-23T15:05:19;8.30;;;7.70;;
1436;SDS011;712;51.026;13.792;2022-07-23T15:07:44;7.63;;;7.13;;
1436;SDS011;712;51.026;13.792;2022-07-23T15:10:10;8.10;;;7.60;;
1436;SDS011;712;51.026;13.792;2022-07-23T15:12:35;8.45;;;7.75;;
1436;SDS011;712;51.026;13.792;2022-07-23T15:15:00;7.63;;;7.13;;
1436;SDS011;712;51.026;13.792;2022-07-23T15:17:25;8.20;;;7.60;;
1436;SDS011;712;51.026;13.792;2022-07-23T15:19:50;8.30;;;7.70;;
1436;SDS011;712;51.026;13.792;2022-07-23T15:22:16;8.80;;;8.20;;
1436;SDS011;712;51.026;13.792;2022-07-23T15:24:41;7.80;;;7.20;;
1436;SDS011;712;51.026;13.792;2022-07-23T15:27:06;8.90;;;8.20;;
1436;SDS011;712;51.026;13.792;2022-07-23T15:29:31;7.60;;;7.10;;
1436;SDS011;712;51.026;13.792;2022-07-23T15:31:57;8.27;;;7.67;;
1436;SDS011;712;51.026;13.792;2022-07-23T15:34:22;8.32;;;7.72;;
1436;SDS011;712;51.026;13.792;2022-07-23T15:36:47;8.90;;;8.30;;
1436;SDS011;712;51.026;13.792;2022-07-23T15:39:12;8.13;;;7.53;;
1436;SDS011;712;51.026;13.792;2022-07-23T15:41:38;7.90;;;7.30;;
1436;SDS011;712;51.026;13.792;2022-07-23T15:44:03;8.32;;;7.65;;
1436;SDS011;712;51.026;13.792;2022-07-23T15:46:28;8.50;;;7.90;;
1436;SDS011;712;51.026;13.792;2022-07-23T15:48:53;8.33;;;7.70;;
1436;SDS011;712;51.026;13.792;2022-07-23T15:51:18;9.40;;;8.70;;